createdAt,value
2022-12-03T00:00:36.105Z,16.98
2022-12-03T00:03:03.038Z,18.27
2022-12-03T00:05:29.863Z,17.45
2022-12-03T00:07:57.042Z,15.48
2022-12-03T00:10:23.806Z,17.52
2022-12-03T00:12:50.580Z,16.95
2022-12-03T00:15:17.459Z,16.70
2022-12-03T00:17:44.163Z,17.23
2022-12-03T00:20:17.886Z,15.25
2022-12-03T00:22:44.654Z,16.05
2022-12-03T00:25:11.374Z,17.67
2022-12-03T00:27:38.075Z,17.38
2022-12-03T00:30:06.076Z,16.77
2022-12-03T00:32:35.942Z,17.65
2022-12-03T00:35:02.746Z,18.17
2022-12-03T00:37:30.081Z,16.88
2022-12-03T00:39:57.129Z,17.38
2022-12-03T00:42:23.832Z,17.08
2022-12-03T00:44:50.790Z,18.00
2022-12-03T00:47:17.784Z,17.90
2022-12-03T00:49:44.442Z,17.67
2022-12-03T00:52:11.374Z,17.25
2022-12-03T00:54:38.094Z,16.98
2022-12-03T00:57:04.862Z,17.90
2022-12-03T00:59:31.602Z,17.20
2022-12-03T01:01:58.342Z,17.60
2022-12-03T01:04:25.133Z,17.80
2022-12-03T01:06:51.857Z,16.33
2022-12-03T01:09:18.629Z,18.00
2022-12-03T01:11:45.312Z,16.90
2022-12-03T01:14:15.526Z,17.13
2022-12-03T01:16:42.857Z,17.85
2022-12-03T01:19:10.732Z,18.52
2022-12-03T01:21:37.784Z,17.58
2022-12-03T01:24:04.818Z,16.65
2022-12-03T01:26:31.610Z,17.05
2022-12-03T01:28:58.294Z,18.60
2022-12-03T01:31:43.561Z,17.13
2022-12-03T01:34:10.243Z,17.95
2022-12-03T01:36:36.888Z,16.50
2022-12-03T01:39:04.280Z,17.35
2022-12-03T01:41:32.417Z,17.25
2022-12-03T01:43:59.704Z,18.15
2022-12-03T01:46:40.711Z,18.05
2022-12-03T01:49:15.024Z,17.58
2022-12-03T01:51:41.966Z,17.25
2022-12-03T01:54:19.475Z,17.48
2022-12-03T01:56:47.296Z,18.58
2022-12-03T01:59:19.950Z,18.33
2022-12-03T02:04:15.220Z,18.80
2022-12-03T02:06:43.306Z,18.55
2022-12-03T02:09:11.999Z,18.58
2022-12-03T02:11:46.860Z,17.58
2022-12-03T02:14:20.091Z,19.70
2022-12-03T02:16:47.043Z,18.27
2022-12-03T02:19:24.322Z,18.90
2022-12-03T02:21:58.698Z,18.83
2022-12-03T02:24:36.834Z,17.90
2022-12-03T02:27:03.591Z,17.38
2022-12-03T02:29:30.534Z,17.50
2022-12-03T02:31:57.488Z,17.75
2022-12-03T02:34:42.665Z,17.85
2022-12-03T02:37:17.448Z,17.70
2022-12-03T02:39:50.113Z,18.33
2022-12-03T02:42:36.373Z,19.27
2022-12-03T02:45:13.897Z,17.58
2022-12-03T02:47:46.581Z,17.02
2022-12-03T02:50:17.393Z,17.17
2022-12-03T02:52:45.984Z,18.85
2022-12-03T02:55:15.401Z,18.75
2022-12-03T02:57:44.658Z,19.13
2022-12-03T03:00:12.402Z,18.45
2022-12-03T03:02:41.746Z,18.27
2022-12-03T03:05:11.719Z,18.58
2022-12-03T03:07:39.709Z,18.42
2022-12-03T03:10:09.315Z,19.45
2022-12-03T03:12:39.337Z,17.88
2022-12-03T03:15:07.489Z,18.05
2022-12-03T03:17:34.489Z,18.23
2022-12-03T03:20:02.009Z,17.40
2022-12-03T03:22:34.123Z,18.65
2022-12-03T03:25:01.215Z,18.15
2022-12-03T03:27:28.751Z,19.35
2022-12-03T03:29:57.957Z,18.25
2022-12-03T03:32:26.441Z,18.70
2022-12-03T03:34:53.671Z,19.88
2022-12-03T03:37:20.823Z,20.15
2022-12-03T03:39:47.818Z,18.52
2022-12-03T03:42:14.693Z,18.77
2022-12-03T03:44:41.508Z,19.60
2022-12-03T03:47:08.317Z,19.92
2022-12-03T03:49:35.470Z,19.65
2022-12-03T03:52:02.433Z,19.00
2022-12-03T03:54:29.299Z,19.98
2022-12-03T03:56:56.154Z,19.25
2022-12-03T03:59:22.888Z,20.35
2022-12-03T04:01:49.722Z,18.60
2022-12-03T04:04:22.013Z,19.75
2022-12-03T04:06:49.068Z,19.83
2022-12-03T04:09:16.250Z,20.40
2022-12-03T04:12:01.685Z,18.55
2022-12-03T04:14:28.490Z,19.88
2022-12-03T04:16:55.336Z,19.58
2022-12-03T04:19:22.058Z,18.95
2022-12-03T04:22:07.441Z,20.67
2022-12-03T04:24:34.149Z,20.77
2022-12-03T04:27:19.641Z,20.08
2022-12-03T04:29:46.359Z,19.20
2022-12-03T04:32:31.666Z,20.05
2022-12-03T04:35:36.685Z,18.80
2022-12-03T04:38:03.455Z,19.85
2022-12-03T04:40:48.645Z,18.10
2022-12-03T04:43:15.317Z,18.55
2022-12-03T04:45:42.034Z,18.73
2022-12-03T04:48:08.992Z,18.95
2022-12-03T04:50:35.631Z,18.48
2022-12-03T04:53:02.352Z,18.33
2022-12-03T04:55:29.347Z,18.05
2022-12-03T04:57:56.170Z,18.25
2022-12-03T05:00:23.074Z,18.45
2022-12-03T05:02:49.910Z,18.20
2022-12-03T05:05:17.222Z,18.38
2022-12-03T05:07:44.073Z,17.50
2022-12-03T05:10:12.141Z,18.48
2022-12-03T05:12:38.830Z,18.20
2022-12-03T05:15:06.329Z,19.40
2022-12-03T05:17:33.378Z,18.48
2022-12-03T05:20:19.120Z,19.90
2022-12-03T05:22:46.008Z,19.65
2022-12-03T05:25:12.673Z,19.48
2022-12-03T05:27:39.613Z,20.13
2022-12-03T05:30:07.130Z,18.65
2022-12-03T05:32:33.802Z,19.90
2022-12-03T05:35:00.490Z,20.10
2022-12-03T05:37:27.151Z,20.00
2022-12-03T05:39:53.965Z,19.63
2022-12-03T05:42:39.125Z,18.90
2022-12-03T05:45:06.440Z,18.80
2022-12-03T05:47:33.409Z,18.60
2022-12-03T05:50:00.114Z,19.27
2022-12-03T05:52:26.961Z,19.02
2022-12-03T05:54:54.389Z,20.10
2022-12-03T05:57:21.258Z,19.55
2022-12-03T05:59:47.919Z,20.27
2022-12-03T06:02:14.740Z,19.48
2022-12-03T06:04:41.488Z,19.08
2022-12-03T06:07:13.603Z,18.27
2022-12-03T06:09:40.756Z,18.92
2022-12-03T06:12:08.718Z,18.63
2022-12-03T06:14:35.697Z,17.08
2022-12-03T06:17:03.029Z,18.63
2022-12-03T06:19:29.645Z,18.48
2022-12-03T06:21:56.363Z,17.67
2022-12-03T06:24:23.027Z,17.73
2022-12-03T06:26:49.652Z,17.25
2022-12-03T06:29:16.276Z,18.13
2022-12-03T06:31:43.039Z,17.98
2022-12-03T06:34:09.918Z,17.23
2022-12-03T06:36:36.744Z,17.70
2022-12-03T06:39:03.925Z,17.05
2022-12-03T06:41:31.379Z,17.45
2022-12-03T06:43:58.269Z,17.42
2022-12-03T06:46:25.421Z,18.15
2022-12-03T06:48:52.197Z,17.58
2022-12-03T06:51:19.021Z,17.52
2022-12-03T06:53:45.734Z,17.08
2022-12-03T06:56:12.502Z,18.50
2022-12-03T06:58:39.182Z,19.30
2022-12-03T07:01:05.965Z,19.00
2022-12-03T07:03:32.645Z,17.75
2022-12-03T07:05:59.344Z,17.52
2022-12-03T07:08:26.420Z,19.15
2022-12-03T07:10:53.326Z,18.50
2022-12-03T07:13:20.290Z,18.60
2022-12-03T07:15:47.118Z,19.65
2022-12-03T07:18:13.944Z,18.95
2022-12-03T07:20:40.856Z,18.75
2022-12-03T07:23:07.686Z,18.77
2022-12-03T07:25:34.471Z,19.67
2022-12-03T07:28:01.222Z,19.38
2022-12-03T07:30:28.065Z,20.95
2022-12-03T07:32:57.113Z,20.95
2022-12-03T07:35:23.906Z,18.67
2022-12-03T07:37:50.641Z,19.02
2022-12-03T07:40:17.875Z,18.88
2022-12-03T07:42:44.603Z,20.27
2022-12-03T07:45:11.673Z,19.00
2022-12-03T07:47:38.494Z,19.60
2022-12-03T07:50:05.635Z,20.30
2022-12-03T07:52:32.478Z,18.50
2022-12-03T07:54:59.232Z,21.75
2022-12-03T07:57:25.889Z,19.73
2022-12-03T07:59:52.605Z,20.83
2022-12-03T08:02:21.550Z,20.77
2022-12-03T08:04:48.663Z,20.35
2022-12-03T08:07:15.392Z,21.55
2022-12-03T08:09:42.639Z,22.13
2022-12-03T08:12:17.429Z,22.90
2022-12-03T08:14:44.594Z,22.55
2022-12-03T08:17:12.965Z,23.10
2022-12-03T08:19:44.922Z,22.75
2022-12-03T08:22:14.237Z,22.55
2022-12-03T08:24:41.556Z,23.17
2022-12-03T08:27:19.716Z,22.15
2022-12-03T08:29:46.777Z,23.48
2022-12-03T08:32:13.914Z,23.20
2022-12-03T08:34:42.846Z,21.85
2022-12-03T08:37:18.102Z,23.33
2022-12-03T08:39:50.234Z,23.10
2022-12-03T08:42:41.186Z,22.08
2022-12-03T08:45:29.006Z,21.25
2022-12-03T08:48:33.666Z,21.60
2022-12-03T08:51:05.208Z,22.17
2022-12-03T08:53:37.577Z,21.88
2022-12-03T08:56:23.981Z,21.33
2022-12-03T08:59:00.580Z,21.50
2022-12-03T09:01:37.440Z,21.27
2022-12-03T09:04:38.626Z,21.02
2022-12-03T09:07:05.475Z,22.52
2022-12-03T09:09:35.038Z,25.33
2022-12-03T09:12:03.633Z,23.80
2022-12-03T09:14:30.302Z,24.60
2022-12-03T09:16:57.118Z,22.42
2022-12-03T09:19:30.854Z,23.38
2022-12-03T09:21:57.525Z,21.92
2022-12-03T09:24:24.240Z,22.60
2022-12-03T09:26:51.029Z,22.20
2022-12-03T09:29:17.688Z,22.23
2022-12-03T09:31:44.384Z,22.30
2022-12-03T09:34:11.326Z,23.48
2022-12-03T09:36:38.186Z,22.92
2022-12-03T09:39:05.386Z,22.77
2022-12-03T09:41:32.375Z,22.40
2022-12-03T09:44:08.611Z,21.58
2022-12-03T09:46:39.673Z,20.23
2022-12-03T09:49:13.992Z,19.90
2022-12-03T09:51:43.328Z,19.88
2022-12-03T09:54:20.783Z,20.73
2022-12-03T09:56:47.535Z,19.15
2022-12-03T09:59:15.076Z,19.70
2022-12-03T10:01:42.834Z,18.73
2022-12-03T10:04:10.081Z,20.58
2022-12-03T10:06:40.973Z,18.90
2022-12-03T10:09:13.101Z,18.67
2022-12-03T10:11:40.183Z,20.75
2022-12-03T10:14:06.932Z,21.08
2022-12-03T10:16:36.146Z,21.70
2022-12-03T10:19:03.167Z,21.88
2022-12-03T10:21:36.765Z,20.27
2022-12-03T10:24:21.825Z,21.48
2022-12-03T10:26:51.361Z,23.58
2022-12-03T10:29:28.189Z,21.83
2022-12-03T10:32:01.098Z,21.80
2022-12-03T10:34:30.802Z,21.33
2022-12-03T10:37:12.646Z,23.15
2022-12-03T10:40:01.635Z,23.67
2022-12-03T10:42:32.302Z,21.95
2022-12-03T10:45:18.061Z,21.90
2022-12-03T10:48:04.071Z,22.50
2022-12-03T10:50:31.089Z,24.15
2022-12-03T10:52:57.833Z,22.70
2022-12-03T10:55:25.157Z,23.85
2022-12-03T10:57:52.130Z,22.73
2022-12-03T11:00:22.850Z,21.77
2022-12-03T11:02:56.487Z,22.95
2022-12-03T11:05:27.466Z,23.77
2022-12-03T11:07:54.560Z,23.20
2022-12-03T11:10:21.808Z,24.13
2022-12-03T11:13:26.972Z,23.60
2022-12-03T11:15:54.113Z,22.75
2022-12-03T11:18:37.151Z,23.55
2022-12-03T11:21:06.938Z,23.17
2022-12-03T11:23:46.151Z,21.52
2022-12-03T11:26:28.995Z,22.08
2022-12-03T11:28:59.856Z,22.92
2022-12-03T11:31:36.209Z,23.27
2022-12-03T11:34:18.305Z,21.38
2022-12-03T11:37:10.187Z,21.65
2022-12-03T11:39:53.138Z,19.05
2022-12-03T11:42:26.026Z,17.70
2022-12-03T11:45:10.979Z,17.58
2022-12-03T11:47:43.851Z,17.75
2022-12-03T11:53:00.266Z,16.27
2022-12-03T11:55:34.672Z,15.65
2022-12-03T11:58:04.394Z,16.63
2022-12-03T12:00:31.454Z,15.70
2022-12-03T12:02:59.353Z,16.63
2022-12-03T12:05:33.680Z,16.23
2022-12-03T12:08:02.516Z,14.80
2022-12-03T12:10:46.537Z,17.10
2022-12-03T12:13:32.540Z,15.73
2022-12-03T12:16:05.364Z,17.42
2022-12-03T12:18:53.711Z,20.13
2022-12-03T12:21:50.222Z,14.57
2022-12-03T12:24:31.663Z,17.13
2022-12-03T12:27:01.186Z,15.30
2022-12-03T12:29:28.460Z,18.75
2022-12-03T12:32:16.775Z,15.52
2022-12-03T12:34:46.923Z,15.20
2022-12-03T12:37:25.569Z,17.40
2022-12-03T12:39:56.410Z,16.25
2022-12-03T12:42:30.211Z,16.85
2022-12-03T12:45:17.906Z,15.68
2022-12-03T12:48:24.109Z,19.65
2022-12-03T12:51:09.536Z,18.33
2022-12-03T12:53:38.758Z,16.40
2022-12-03T12:56:26.690Z,17.58
2022-12-03T12:58:54.536Z,15.20
2022-12-03T13:01:28.058Z,15.80
2022-12-03T13:03:55.571Z,15.95
2022-12-03T13:06:26.875Z,16.10
2022-12-03T13:08:55.168Z,16.70
2022-12-03T13:11:24.940Z,19.30
2022-12-03T13:13:52.207Z,16.13
2022-12-03T13:16:33.005Z,16.77
2022-12-03T13:19:01.246Z,16.70
2022-12-03T13:21:42.713Z,18.08
2022-12-03T13:24:26.767Z,17.42
2022-12-03T13:26:53.526Z,19.25
2022-12-03T13:29:22.951Z,16.40
2022-12-03T13:32:01.450Z,19.40
2022-12-03T13:34:36.437Z,16.52
2022-12-03T13:37:13.039Z,16.30
2022-12-03T13:39:47.814Z,19.58
2022-12-03T13:42:33.143Z,19.10
2022-12-03T13:45:01.731Z,19.52
2022-12-03T13:47:28.678Z,20.10
2022-12-03T13:49:58.978Z,22.90
2022-12-03T13:52:26.615Z,19.65
2022-12-03T13:54:55.904Z,19.48
2022-12-03T13:57:23.135Z,21.65
2022-12-03T13:59:49.857Z,23.17
2022-12-03T14:02:16.755Z,24.48
2022-12-03T14:04:46.353Z,24.70
2022-12-03T14:07:13.042Z,23.85
2022-12-03T14:09:41.230Z,24.70
2022-12-03T14:12:26.163Z,25.60
2022-12-03T14:14:53.706Z,24.85
2022-12-03T14:17:20.768Z,25.13
2022-12-03T14:19:47.502Z,23.58
2022-12-03T14:22:14.239Z,24.55
2022-12-03T14:24:41.134Z,25.30
2022-12-03T14:27:08.146Z,23.75
2022-12-03T14:29:34.968Z,24.48
2022-12-03T14:32:02.167Z,24.67
2022-12-03T14:34:28.921Z,23.92
2022-12-03T14:36:59.426Z,24.05
2022-12-03T14:39:28.275Z,22.35
2022-12-03T14:42:15.000Z,21.95
2022-12-03T14:44:47.641Z,21.48
2022-12-03T14:47:16.389Z,22.25
2022-12-03T14:49:43.454Z,20.60
2022-12-03T14:52:12.493Z,19.95
2022-12-03T14:54:42.309Z,21.50
2022-12-03T14:57:13.159Z,20.13
2022-12-03T14:59:43.748Z,19.45
2022-12-03T15:02:12.152Z,17.85
2022-12-03T15:04:40.229Z,19.30
2022-12-03T15:07:07.612Z,18.98
2022-12-03T15:09:34.849Z,18.95
2022-12-03T15:12:03.210Z,17.75
2022-12-03T15:14:29.909Z,16.85
2022-12-03T15:16:56.846Z,17.92
2022-12-03T15:19:23.901Z,16.83
2022-12-03T15:21:50.558Z,16.75
2022-12-03T15:24:17.284Z,17.02
2022-12-03T15:26:44.018Z,16.75
2022-12-03T15:29:12.014Z,16.67
2022-12-03T15:31:38.882Z,17.17
2022-12-03T15:34:05.655Z,17.08
2022-12-03T15:36:32.357Z,16.92
2022-12-03T15:38:59.533Z,16.83
2022-12-03T15:41:29.384Z,17.08
2022-12-03T15:43:58.934Z,17.38
2022-12-03T15:46:27.663Z,17.40
2022-12-03T15:48:55.645Z,18.23
2022-12-03T15:51:22.582Z,22.58
2022-12-03T15:53:49.229Z,18.58
2022-12-03T15:56:16.045Z,19.10
2022-12-03T15:58:42.752Z,21.33
2022-12-03T16:01:09.981Z,21.15
2022-12-03T16:03:36.852Z,21.92
2022-12-03T16:06:03.934Z,23.42
2022-12-03T16:08:30.787Z,24.58
2022-12-03T16:10:57.643Z,26.77
2022-12-03T16:13:24.489Z,26.77
2022-12-03T16:15:51.376Z,27.42
2022-12-03T16:18:18.069Z,27.20
2022-12-03T16:20:44.856Z,25.73
2022-12-03T16:23:11.711Z,26.63
2022-12-03T16:25:38.561Z,27.83
2022-12-03T16:28:06.252Z,28.67
2022-12-03T16:30:32.931Z,27.77
2022-12-03T16:32:59.603Z,24.83
2022-12-03T16:35:26.265Z,30.85
2022-12-03T16:37:52.913Z,26.75
2022-12-03T16:40:19.767Z,25.33
2022-12-03T16:42:46.457Z,25.65
2022-12-03T16:45:32.995Z,24.88
2022-12-03T16:48:01.575Z,26.55
2022-12-03T16:50:30.141Z,25.00
2022-12-03T16:52:57.604Z,26.02
2022-12-03T16:55:24.576Z,25.27
2022-12-03T16:57:51.365Z,26.15
2022-12-03T17:00:18.254Z,24.70
2022-12-03T17:02:44.999Z,24.80
2022-12-03T17:05:11.810Z,24.60
2022-12-03T17:07:38.564Z,24.35
2022-12-03T17:10:06.232Z,24.75
2022-12-03T17:13:00.733Z,22.42
2022-12-03T17:15:19.681Z,25.33
2022-12-03T17:17:46.518Z,25.30
2022-12-03T17:20:14.833Z,26.48
2022-12-03T17:22:41.994Z,26.13
2022-12-03T17:25:09.747Z,24.90
2022-12-03T17:27:40.767Z,27.65
2022-12-03T17:30:15.734Z,25.05
2022-12-03T17:32:42.545Z,26.90
2022-12-03T17:35:10.509Z,25.58
2022-12-03T17:37:39.401Z,25.27
2022-12-03T17:40:07.583Z,26.15
2022-12-03T17:42:34.274Z,24.40
2022-12-03T17:45:01.069Z,27.70
2022-12-03T17:47:27.805Z,27.00
2022-12-03T17:49:55.480Z,25.67
2022-12-03T17:52:22.779Z,27.42
2022-12-03T17:55:09.677Z,27.67
2022-12-03T17:57:36.049Z,27.45
2022-12-03T18:00:03.110Z,28.15
2022-12-03T18:02:39.080Z,25.33
2022-12-03T18:05:05.938Z,28.08
2022-12-03T18:07:32.708Z,26.83
2022-12-03T18:09:59.585Z,28.40
2022-12-03T18:12:26.363Z,26.98
2022-12-03T18:14:53.041Z,26.23
2022-12-03T18:17:19.730Z,25.80
2022-12-03T18:19:46.387Z,25.23
2022-12-03T18:22:13.078Z,24.92
2022-12-03T18:24:40.236Z,24.95
2022-12-03T18:27:07.061Z,23.95
2022-12-03T18:29:33.854Z,24.58
2022-12-03T18:32:00.820Z,23.95
2022-12-03T18:34:27.664Z,24.80
2022-12-03T18:36:54.630Z,23.38
2022-12-03T18:39:32.495Z,24.15
2022-12-03T18:41:59.135Z,22.65
2022-12-03T18:44:25.981Z,24.30
2022-12-03T18:46:54.292Z,23.23
2022-12-03T18:49:21.872Z,24.00
2022-12-03T18:51:49.010Z,23.17
2022-12-03T18:54:17.310Z,24.25
2022-12-03T18:56:44.010Z,23.83
2022-12-03T18:59:11.095Z,23.98
2022-12-03T19:01:37.980Z,26.90
2022-12-03T19:04:04.906Z,25.75
2022-12-03T19:06:32.509Z,27.15
2022-12-03T19:08:59.224Z,28.77
2022-12-03T19:11:25.906Z,30.02
2022-12-03T19:13:52.574Z,25.92
2022-12-03T19:16:19.359Z,26.45
2022-12-03T19:18:46.118Z,23.65
2022-12-03T19:21:15.470Z,30.60
2022-12-03T19:23:47.242Z,25.52
2022-12-03T19:26:25.832Z,24.70
2022-12-03T19:28:53.759Z,25.30
2022-12-03T19:31:20.794Z,24.52
2022-12-03T19:33:48.086Z,23.58
2022-12-03T19:36:23.390Z,26.42
2022-12-03T19:38:56.700Z,24.90
2022-12-03T19:41:27.337Z,23.90
2022-12-03T19:43:55.665Z,24.73
2022-12-03T19:46:24.795Z,25.52
2022-12-03T19:48:51.889Z,25.83
2022-12-03T19:51:35.307Z,26.33
2022-12-03T19:54:04.340Z,25.88
2022-12-03T19:56:31.514Z,25.25
2022-12-03T19:58:58.415Z,25.95
2022-12-03T20:01:30.942Z,26.73
2022-12-03T20:03:59.322Z,23.83
2022-12-03T20:06:28.557Z,24.65
2022-12-03T20:08:59.918Z,25.20
2022-12-03T20:11:30.396Z,25.45
2022-12-03T20:14:03.050Z,25.23
2022-12-03T20:16:30.006Z,24.92
2022-12-03T20:18:58.739Z,25.85
2022-12-03T20:21:25.521Z,25.25
2022-12-03T20:23:52.258Z,26.65
2022-12-03T20:26:21.152Z,24.95
2022-12-03T20:28:48.167Z,25.52
2022-12-03T20:31:17.798Z,23.40
2022-12-03T20:33:49.714Z,24.42
2022-12-03T20:36:18.934Z,28.17
2022-12-03T20:38:45.837Z,25.55
2022-12-03T20:41:18.301Z,25.15
2022-12-03T20:43:45.584Z,24.85
2022-12-03T20:46:15.021Z,26.73
2022-12-03T20:48:43.911Z,24.35
2022-12-03T20:51:14.085Z,24.67
2022-12-03T20:53:40.927Z,24.77
2022-12-03T20:56:08.377Z,24.65
2022-12-03T20:58:35.841Z,26.23
2022-12-03T21:01:18.664Z,28.60
2022-12-03T21:03:46.302Z,26.15
2022-12-03T21:06:13.914Z,25.20
2022-12-03T21:08:42.385Z,25.30
2022-12-03T21:11:18.690Z,24.45
2022-12-03T21:13:46.405Z,26.33
2022-12-03T21:16:16.040Z,26.92
2022-12-03T21:18:43.113Z,27.98
2022-12-03T21:21:11.980Z,29.50
2022-12-03T21:23:38.810Z,27.75
2022-12-03T21:26:11.614Z,27.30
2022-12-03T21:31:08.383Z,26.42
2022-12-03T21:33:35.811Z,31.20
2022-12-03T21:36:02.975Z,30.63
2022-12-03T21:38:30.537Z,27.08
2022-12-03T21:40:58.416Z,26.55
2022-12-03T21:43:25.625Z,28.17
2022-12-03T21:45:53.292Z,28.73
2022-12-03T21:48:20.767Z,26.05
2022-12-03T21:51:01.378Z,29.83
2022-12-03T21:53:28.899Z,25.63
2022-12-03T21:55:55.711Z,28.00
2022-12-03T21:58:22.335Z,25.58
2022-12-03T22:00:49.018Z,27.63
2022-12-03T22:03:15.735Z,25.95
2022-12-03T22:05:42.544Z,26.85
2022-12-03T22:08:09.692Z,25.65
2022-12-03T22:10:36.870Z,25.98
2022-12-03T22:13:03.557Z,24.23
2022-12-03T22:15:30.330Z,24.98
2022-12-03T22:17:56.981Z,25.38
2022-12-03T22:20:23.698Z,24.67
2022-12-03T22:22:50.431Z,23.67
2022-12-03T22:25:17.255Z,25.63
2022-12-03T22:27:43.950Z,27.23
2022-12-03T22:30:10.862Z,31.10
2022-12-03T22:32:37.489Z,26.70
2022-12-03T22:35:04.886Z,27.42
2022-12-03T22:37:32.765Z,27.35
2022-12-03T22:39:59.518Z,25.85
2022-12-03T22:42:26.243Z,28.45
2022-12-03T22:44:53.046Z,28.63
2022-12-03T22:47:19.735Z,26.90
2022-12-03T22:49:46.356Z,26.38
2022-12-03T22:52:13.026Z,26.85
2022-12-03T22:54:39.663Z,27.35
2022-12-03T22:57:06.348Z,27.73
2022-12-03T22:59:33.059Z,26.13
2022-12-03T23:01:59.785Z,27.67
2022-12-03T23:04:26.410Z,25.77
2022-12-03T23:06:53.100Z,26.33
2022-12-03T23:09:19.810Z,28.05
2022-12-03T23:11:46.662Z,27.90
2022-12-03T23:14:13.479Z,27.98
2022-12-03T23:16:40.923Z,28.75
2022-12-03T23:19:07.766Z,28.08
2022-12-03T23:21:35.422Z,27.15
2022-12-03T23:24:04.194Z,27.90
2022-12-03T23:26:34.505Z,29.52
2022-12-03T23:29:01.195Z,27.00
2022-12-03T23:31:29.981Z,29.30
2022-12-03T23:33:58.001Z,28.95
2022-12-03T23:36:26.990Z,28.98
2022-12-03T23:38:54.595Z,28.52
2022-12-03T23:41:23.150Z,29.02
2022-12-03T23:43:49.945Z,28.13
2022-12-03T23:46:20.590Z,29.77
2022-12-03T23:48:47.386Z,28.80
2022-12-03T23:51:17.923Z,29.85
2022-12-03T23:53:45.162Z,29.52
2022-12-03T23:56:23.975Z,28.52
2022-12-03T23:58:51.157Z,29.08
